createdAt,value
2022-11-14T00:18:29.940Z,19.2
2022-11-14T00:48:29.979Z,19.1
2022-11-14T01:18:29.931Z,19.1
2022-11-14T01:48:29.921Z,19.1
2022-11-14T02:18:29.880Z,19.0
2022-11-14T02:48:29.611Z,19.0
2022-11-14T03:18:29.936Z,19.0
2022-11-14T03:48:29.905Z,18.9
2022-11-14T04:18:29.908Z,18.9
2022-11-14T04:48:29.983Z,19.1
2022-11-14T05:18:30.082Z,19.1
2022-11-14T05:48:29.891Z,19.3
2022-11-14T06:18:29.898Z,19.3
2022-11-14T06:48:29.986Z,19.5
2022-11-14T07:18:29.930Z,19.6
2022-11-14T07:48:29.896Z,19.8
2022-11-14T08:18:30.023Z,20.0
2022-11-14T08:48:30.022Z,20.1
2022-11-14T09:18:29.904Z,20.1
2022-11-14T09:48:29.949Z,20.2
2022-11-14T10:18:29.877Z,20.3
2022-11-14T10:48:29.927Z,20.3
2022-11-14T11:18:29.923Z,20.3
2022-11-14T11:48:29.919Z,20.2
2022-11-14T12:18:29.911Z,20.2
2022-11-14T12:48:29.883Z,20.3
2022-11-14T13:18:29.911Z,20.3
2022-11-14T13:48:29.895Z,20.5
2022-11-14T14:18:29.869Z,20.6
2022-11-14T14:48:29.909Z,20.7
2022-11-14T15:18:29.873Z,20.8
2022-11-14T15:48:29.885Z,20.8
2022-11-14T16:18:29.881Z,20.8
2022-11-14T16:48:29.889Z,20.9
2022-11-14T17:18:29.860Z,20.8
2022-11-14T17:48:29.918Z,20.6
2022-11-14T18:18:29.896Z,20.6
2022-11-14T18:48:29.899Z,20.6
2022-11-14T19:18:29.881Z,20.7
2022-11-14T19:48:29.872Z,20.6
2022-11-14T20:18:29.860Z,20.6
2022-11-14T20:48:29.938Z,20.4
2022-11-14T21:18:29.908Z,20.3
2022-11-14T21:48:29.887Z,20.3
2022-11-14T22:18:29.883Z,20.1
2022-11-14T22:48:29.918Z,20.0
2022-11-14T23:18:29.990Z,20.0
2022-11-14T23:48:29.854Z,19.9
